sensor_id;sensor_type;location;lat;lon;timestamp;P1;durP1;ratioP1;P2;durP2;ratioP2
6626;SDS011;3349;49.830;8.748;2023-02-01T00:02:08;7.78;;;5.90;;
6626;SDS011;3349;49.830;8.748;2023-02-01T00:04:35;8.57;;;6.15;;
6626;SDS011;3349;49.830;8.748;2023-02-01T00:07:02;7.20;;;5.80;;
6626;SDS011;3349;49.830;8.748;2023-02-01T00:09:28;8.43;;;5.50;;
6626;SDS011;3349;49.830;8.748;2023-02-01T00:11:55;6.72;;;5.47;;
6626;SDS011;3349;49.830;8.748;2023-02-01T00:14:24;9.18;;;6.10;;
6626;SDS011;3349;49.830;8.748;2023-02-01T00:16:51;6.35;;;5.70;;
6626;SDS011;3349;49.830;8.748;2023-02-01T00:19:19;8.38;;;5.95;;
6626;SDS011;3349;49.830;8.748;2023-02-01T00:21:46;8.13;;;6.15;;
6626;SDS011;3349;49.830;8.748;2023-02-01T00:24:12;8.68;;;6.15;;
6626;SDS011;3349;49.830;8.748;2023-02-01T00:26:40;8.85;;;5.82;;
6626;SDS011;3349;49.830;8.748;2023-02-01T00:29:09;9.57;;;5.70;;
6626;SDS011;3349;49.830;8.748;2023-02-01T00:31:37;7.55;;;5.82;;
6626;SDS011;3349;49.830;8.748;2023-02-01T00:34:04;11.38;;;6.35;;
6626;SDS011;3349;49.830;8.748;2023-02-01T00:36:32;7.68;;;6.10;;
6626;SDS011;3349;49.830;8.748;2023-02-01T00:38:59;11.02;;;6.38;;
6626;SDS011;3349;49.830;8.748;2023-02-01T00:41:26;9.52;;;6.10;;
6626;SDS011;3349;49.830;8.748;2023-02-01T00:43:53;9.57;;;6.90;;
6626;SDS011;3349;49.830;8.748;2023-02-01T00:46:19;8.77;;;6.70;;
6626;SDS011;3349;49.830;8.748;2023-02-01T00:48:47;10.13;;;7.03;;
6626;SDS011;3349;49.830;8.748;2023-02-01T00:51:14;11.38;;;7.25;;
6626;SDS011;3349;49.830;8.748;2023-02-01T00:53:44;12.13;;;7.63;;
6626;SDS011;3349;49.830;8.748;2023-02-01T00:56:11;11.07;;;7.15;;
6626;SDS011;3349;49.830;8.748;2023-02-01T00:58:38;11.93;;;7.70;;
6626;SDS011;3349;49.830;8.748;2023-02-01T01:01:07;10.80;;;7.25;;
6626;SDS011;3349;49.830;8.748;2023-02-01T01:03:36;13.98;;;8.15;;
6626;SDS011;3349;49.830;8.748;2023-02-01T01:06:05;13.18;;;8.85;;
6626;SDS011;3349;49.830;8.748;2023-02-01T01:08:33;11.13;;;7.53;;
6626;SDS011;3349;49.830;8.748;2023-02-01T01:11:05;13.90;;;8.63;;
6626;SDS011;3349;49.830;8.748;2023-02-01T01:13:32;10.13;;;7.78;;
6626;SDS011;3349;49.830;8.748;2023-02-01T01:15:59;12.10;;;7.63;;
6626;SDS011;3349;49.830;8.748;2023-02-01T01:18:27;8.75;;;6.95;;
6626;SDS011;3349;49.830;8.748;2023-02-01T01:20:54;10.38;;;7.13;;
6626;SDS011;3349;49.830;8.748;2023-02-01T01:23:21;9.40;;;6.80;;
6626;SDS011;3349;49.830;8.748;2023-02-01T01:25:48;11.70;;;7.28;;
6626;SDS011;3349;49.830;8.748;2023-02-01T01:28:16;9.35;;;7.18;;
6626;SDS011;3349;49.830;8.748;2023-02-01T01:30:43;7.95;;;6.35;;
6626;SDS011;3349;49.830;8.748;2023-02-01T01:33:09;10.60;;;6.93;;
6626;SDS011;3349;49.830;8.748;2023-02-01T01:35:36;10.10;;;6.90;;
6626;SDS011;3349;49.830;8.748;2023-02-01T01:38:03;7.55;;;6.50;;
6626;SDS011;3349;49.830;8.748;2023-02-01T01:40:30;11.63;;;6.50;;
6626;SDS011;3349;49.830;8.748;2023-02-01T01:42:57;9.02;;;6.90;;
6626;SDS011;3349;49.830;8.748;2023-02-01T01:45:26;10.90;;;6.87;;
6626;SDS011;3349;49.830;8.748;2023-02-01T01:47:55;10.10;;;6.33;;
6626;SDS011;3349;49.830;8.748;2023-02-01T01:50:24;8.45;;;6.82;;
6626;SDS011;3349;49.830;8.748;2023-02-01T01:52:55;12.35;;;6.80;;
6626;SDS011;3349;49.830;8.748;2023-02-01T01:55:25;11.07;;;6.50;;
6626;SDS011;3349;49.830;8.748;2023-02-01T01:57:54;12.23;;;7.07;;
6626;SDS011;3349;49.830;8.748;2023-02-01T02:00:23;11.35;;;6.65;;
6626;SDS011;3349;49.830;8.748;2023-02-01T02:02:54;13.40;;;6.80;;
6626;SDS011;3349;49.830;8.748;2023-02-01T02:05:28;10.18;;;7.57;;
6626;SDS011;3349;49.830;8.748;2023-02-01T02:07:56;9.85;;;6.97;;
6626;SDS011;3349;49.830;8.748;2023-02-01T02:10:26;10.82;;;7.53;;
6626;SDS011;3349;49.830;8.748;2023-02-01T02:13:13;13.52;;;7.80;;
6626;SDS011;3349;49.830;8.748;2023-02-01T02:15:42;10.30;;;7.30;;
6626;SDS011;3349;49.830;8.748;2023-02-01T02:18:17;10.90;;;7.63;;
6626;SDS011;3349;49.830;8.748;2023-02-01T02:20:59;13.18;;;7.47;;
6626;SDS011;3349;49.830;8.748;2023-02-01T02:26:35;12.57;;;7.75;;
6626;SDS011;3349;49.830;8.748;2023-02-01T02:29:25;9.65;;;6.80;;
6626;SDS011;3349;49.830;8.748;2023-02-01T02:35:21;11.20;;;6.90;;
6626;SDS011;3349;49.830;8.748;2023-02-01T02:37:55;12.02;;;7.07;;
6626;SDS011;3349;49.830;8.748;2023-02-01T02:40:32;9.65;;;6.70;;
6626;SDS011;3349;49.830;8.748;2023-02-01T02:43:04;8.57;;;6.53;;
6626;SDS011;3349;49.830;8.748;2023-02-01T02:45:55;12.45;;;6.38;;
6626;SDS011;3349;49.830;8.748;2023-02-01T02:48:46;11.48;;;6.72;;
6626;SDS011;3349;49.830;8.748;2023-02-01T02:51:18;11.77;;;6.97;;
6626;SDS011;3349;49.830;8.748;2023-02-01T02:54:09;9.65;;;6.72;;
6626;SDS011;3349;49.830;8.748;2023-02-01T02:56:56;9.15;;;6.82;;
6626;SDS011;3349;49.830;8.748;2023-02-01T02:59:44;11.20;;;7.25;;
6626;SDS011;3349;49.830;8.748;2023-02-01T03:02:29;11.38;;;7.25;;
6626;SDS011;3349;49.830;8.748;2023-02-01T03:05:14;10.98;;;7.32;;
6626;SDS011;3349;49.830;8.748;2023-02-01T03:07:48;12.38;;;6.78;;
6626;SDS011;3349;49.830;8.748;2023-02-01T03:10:23;10.95;;;7.40;;
6626;SDS011;3349;49.830;8.748;2023-02-01T03:12:58;10.98;;;7.22;;
6626;SDS011;3349;49.830;8.748;2023-02-01T03:15:31;15.38;;;7.25;;
6626;SDS011;3349;49.830;8.748;2023-02-01T03:18:02;9.73;;;7.18;;
6626;SDS011;3349;49.830;8.748;2023-02-01T03:20:32;13.13;;;8.02;;
6626;SDS011;3349;49.830;8.748;2023-02-01T03:23:01;16.08;;;8.25;;
6626;SDS011;3349;49.830;8.748;2023-02-01T03:25:31;13.40;;;7.97;;
6626;SDS011;3349;49.830;8.748;2023-02-01T03:28:00;14.93;;;8.38;;
6626;SDS011;3349;49.830;8.748;2023-02-01T03:30:30;12.80;;;8.38;;
6626;SDS011;3349;49.830;8.748;2023-02-01T03:33:01;13.07;;;6.75;;
6626;SDS011;3349;49.830;8.748;2023-02-01T03:35:37;7.20;;;5.38;;
6626;SDS011;3349;49.830;8.748;2023-02-01T03:38:12;9.65;;;3.90;;
6626;SDS011;3349;49.830;8.748;2023-02-01T03:40:45;3.65;;;2.95;;
6626;SDS011;3349;49.830;8.748;2023-02-01T03:43:17;5.82;;;3.88;;
6626;SDS011;3349;49.830;8.748;2023-02-01T03:45:48;4.90;;;4.05;;
6626;SDS011;3349;49.830;8.748;2023-02-01T03:48:20;5.88;;;4.10;;
6626;SDS011;3349;49.830;8.748;2023-02-01T03:50:50;6.22;;;4.65;;
6626;SDS011;3349;49.830;8.748;2023-02-01T03:53:23;5.32;;;4.28;;
6626;SDS011;3349;49.830;8.748;2023-02-01T03:55:51;4.75;;;4.18;;
6626;SDS011;3349;49.830;8.748;2023-02-01T03:58:20;7.68;;;4.47;;
6626;SDS011;3349;49.830;8.748;2023-02-01T04:00:49;5.82;;;4.32;;
6626;SDS011;3349;49.830;8.748;2023-02-01T04:03:18;8.02;;;4.78;;
6626;SDS011;3349;49.830;8.748;2023-02-01T04:05:46;8.05;;;5.70;;
6626;SDS011;3349;49.830;8.748;2023-02-01T04:08:13;9.38;;;5.43;;
6626;SDS011;3349;49.830;8.748;2023-02-01T04:10:42;9.35;;;5.38;;
6626;SDS011;3349;49.830;8.748;2023-02-01T04:13:09;7.60;;;5.30;;
6626;SDS011;3349;49.830;8.748;2023-02-01T04:15:36;10.45;;;6.32;;
6626;SDS011;3349;49.830;8.748;2023-02-01T04:18:03;11.68;;;6.28;;
6626;SDS011;3349;49.830;8.748;2023-02-01T04:20:29;8.88;;;6.38;;
6626;SDS011;3349;49.830;8.748;2023-02-01T04:22:56;10.80;;;5.68;;
6626;SDS011;3349;49.830;8.748;2023-02-01T04:25:23;9.00;;;5.97;;
6626;SDS011;3349;49.830;8.748;2023-02-01T04:27:51;10.60;;;6.32;;
6626;SDS011;3349;49.830;8.748;2023-02-01T04:30:18;7.78;;;5.70;;
6626;SDS011;3349;49.830;8.748;2023-02-01T04:32:44;10.30;;;6.38;;
6626;SDS011;3349;49.830;8.748;2023-02-01T04:35:11;11.93;;;6.60;;
6626;SDS011;3349;49.830;8.748;2023-02-01T04:37:38;10.32;;;6.07;;
6626;SDS011;3349;49.830;8.748;2023-02-01T04:40:05;11.63;;;6.00;;
6626;SDS011;3349;49.830;8.748;2023-02-01T04:42:32;13.45;;;6.85;;
6626;SDS011;3349;49.830;8.748;2023-02-01T04:45:00;10.50;;;6.07;;
6626;SDS011;3349;49.830;8.748;2023-02-01T04:47:27;13.63;;;6.57;;
6626;SDS011;3349;49.830;8.748;2023-02-01T04:49:54;8.68;;;5.50;;
6626;SDS011;3349;49.830;8.748;2023-02-01T04:52:20;12.70;;;6.90;;
6626;SDS011;3349;49.830;8.748;2023-02-01T04:54:48;13.43;;;7.38;;
6626;SDS011;3349;49.830;8.748;2023-02-01T04:57:14;10.68;;;7.55;;
6626;SDS011;3349;49.830;8.748;2023-02-01T04:59:41;7.22;;;5.38;;
6626;SDS011;3349;49.830;8.748;2023-02-01T05:02:09;7.50;;;5.30;;
6626;SDS011;3349;49.830;8.748;2023-02-01T05:04:36;5.93;;;4.75;;
6626;SDS011;3349;49.830;8.748;2023-02-01T05:07:02;9.18;;;5.15;;
6626;SDS011;3349;49.830;8.748;2023-02-01T05:09:29;8.25;;;5.35;;
6626;SDS011;3349;49.830;8.748;2023-02-01T05:11:56;7.57;;;4.53;;
6626;SDS011;3349;49.830;8.748;2023-02-01T05:14:40;9.00;;;4.50;;
6626;SDS011;3349;49.830;8.748;2023-02-01T05:17:06;14.80;;;5.85;;
6626;SDS011;3349;49.830;8.748;2023-02-01T05:19:35;12.52;;;5.38;;
6626;SDS011;3349;49.830;8.748;2023-02-01T05:22:01;9.82;;;4.78;;
6626;SDS011;3349;49.830;8.748;2023-02-01T05:24:28;15.13;;;5.05;;
6626;SDS011;3349;49.830;8.748;2023-02-01T05:26:55;12.77;;;5.50;;
6626;SDS011;3349;49.830;8.748;2023-02-01T05:29:21;11.25;;;4.63;;
6626;SDS011;3349;49.830;8.748;2023-02-01T05:31:48;13.95;;;5.10;;
6626;SDS011;3349;49.830;8.748;2023-02-01T05:34:15;10.98;;;4.35;;
6626;SDS011;3349;49.830;8.748;2023-02-01T05:36:44;13.60;;;4.70;;
6626;SDS011;3349;49.830;8.748;2023-02-01T05:39:10;10.60;;;4.50;;
6626;SDS011;3349;49.830;8.748;2023-02-01T05:41:37;11.65;;;4.80;;
6626;SDS011;3349;49.830;8.748;2023-02-01T05:44:04;11.98;;;4.68;;
6626;SDS011;3349;49.830;8.748;2023-02-01T05:46:32;9.48;;;4.53;;
6626;SDS011;3349;49.830;8.748;2023-02-01T05:48:59;10.00;;;4.30;;
6626;SDS011;3349;49.830;8.748;2023-02-01T05:51:25;13.50;;;4.40;;
6626;SDS011;3349;49.830;8.748;2023-02-01T05:53:54;9.13;;;4.10;;
6626;SDS011;3349;49.830;8.748;2023-02-01T05:56:20;10.43;;;3.80;;
6626;SDS011;3349;49.830;8.748;2023-02-01T05:58:47;7.35;;;3.78;;
6626;SDS011;3349;49.830;8.748;2023-02-01T06:01:14;6.88;;;3.30;;
6626;SDS011;3349;49.830;8.748;2023-02-01T06:03:41;8.65;;;2.97;;
6626;SDS011;3349;49.830;8.748;2023-02-01T06:06:07;6.85;;;3.72;;
6626;SDS011;3349;49.830;8.748;2023-02-01T06:08:34;6.38;;;3.10;;
6626;SDS011;3349;49.830;8.748;2023-02-01T06:11:03;6.85;;;2.72;;
6626;SDS011;3349;49.830;8.748;2023-02-01T06:13:31;6.72;;;3.00;;
6626;SDS011;3349;49.830;8.748;2023-02-01T06:15:58;6.88;;;3.13;;
6626;SDS011;3349;49.830;8.748;2023-02-01T06:18:25;6.43;;;2.95;;
6626;SDS011;3349;49.830;8.748;2023-02-01T06:20:52;8.95;;;3.10;;
6626;SDS011;3349;49.830;8.748;2023-02-01T06:23:19;8.32;;;2.72;;
6626;SDS011;3349;49.830;8.748;2023-02-01T06:25:49;5.70;;;2.65;;
6626;SDS011;3349;49.830;8.748;2023-02-01T06:28:18;5.25;;;3.03;;
6626;SDS011;3349;49.830;8.748;2023-02-01T06:30:45;4.28;;;2.55;;
6626;SDS011;3349;49.830;8.748;2023-02-01T06:33:12;4.55;;;2.58;;
6626;SDS011;3349;49.830;8.748;2023-02-01T06:35:40;8.05;;;3.90;;
6626;SDS011;3349;49.830;8.748;2023-02-01T06:38:08;4.68;;;3.30;;
6626;SDS011;3349;49.830;8.748;2023-02-01T06:40:35;6.95;;;3.95;;
6626;SDS011;3349;49.830;8.748;2023-02-01T06:43:02;8.35;;;3.90;;
6626;SDS011;3349;49.830;8.748;2023-02-01T06:45:30;7.20;;;3.85;;
6626;SDS011;3349;49.830;8.748;2023-02-01T06:47:58;7.28;;;3.88;;
6626;SDS011;3349;49.830;8.748;2023-02-01T06:50:25;6.90;;;3.72;;
6626;SDS011;3349;49.830;8.748;2023-02-01T06:52:52;12.10;;;4.50;;
6626;SDS011;3349;49.830;8.748;2023-02-01T06:55:18;7.43;;;4.22;;
6626;SDS011;3349;49.830;8.748;2023-02-01T06:57:45;7.63;;;4.38;;
6626;SDS011;3349;49.830;8.748;2023-02-01T07:00:12;9.05;;;4.68;;
6626;SDS011;3349;49.830;8.748;2023-02-01T07:02:41;11.05;;;4.20;;
6626;SDS011;3349;49.830;8.748;2023-02-01T07:05:08;11.48;;;3.75;;
6626;SDS011;3349;49.830;8.748;2023-02-01T07:07:35;9.02;;;3.17;;
6626;SDS011;3349;49.830;8.748;2023-02-01T07:10:01;8.82;;;3.35;;
6626;SDS011;3349;49.830;8.748;2023-02-01T07:12:28;6.85;;;3.58;;
6626;SDS011;3349;49.830;8.748;2023-02-01T07:14:55;9.63;;;3.65;;
6626;SDS011;3349;49.830;8.748;2023-02-01T07:17:22;9.13;;;3.88;;
6626;SDS011;3349;49.830;8.748;2023-02-01T07:19:50;12.73;;;3.43;;
6626;SDS011;3349;49.830;8.748;2023-02-01T07:22:17;8.55;;;4.07;;
6626;SDS011;3349;49.830;8.748;2023-02-01T07:24:44;13.63;;;3.78;;
6626;SDS011;3349;49.830;8.748;2023-02-01T07:27:10;10.15;;;4.65;;
6626;SDS011;3349;49.830;8.748;2023-02-01T07:29:37;8.57;;;4.72;;
6626;SDS011;3349;49.830;8.748;2023-02-01T07:32:04;10.63;;;4.77;;
6626;SDS011;3349;49.830;8.748;2023-02-01T07:34:31;8.25;;;4.25;;
6626;SDS011;3349;49.830;8.748;2023-02-01T07:37:00;10.83;;;4.57;;
6626;SDS011;3349;49.830;8.748;2023-02-01T07:39:27;12.37;;;4.10;;
6626;SDS011;3349;49.830;8.748;2023-02-01T07:41:56;8.70;;;4.60;;
6626;SDS011;3349;49.830;8.748;2023-02-01T07:44:23;10.98;;;4.40;;
6626;SDS011;3349;49.830;8.748;2023-02-01T07:46:50;10.17;;;4.23;;
6626;SDS011;3349;49.830;8.748;2023-02-01T07:49:17;13.57;;;4.72;;
6626;SDS011;3349;49.830;8.748;2023-02-01T07:51:44;16.25;;;4.35;;
6626;SDS011;3349;49.830;8.748;2023-02-01T07:54:12;11.52;;;4.63;;
6626;SDS011;3349;49.830;8.748;2023-02-01T07:56:38;7.28;;;4.35;;
6626;SDS011;3349;49.830;8.748;2023-02-01T07:59:05;8.43;;;4.38;;
6626;SDS011;3349;49.830;8.748;2023-02-01T08:01:32;8.40;;;4.40;;
6626;SDS011;3349;49.830;8.748;2023-02-01T08:03:59;9.77;;;4.53;;
6626;SDS011;3349;49.830;8.748;2023-02-01T08:06:27;12.77;;;4.40;;
6626;SDS011;3349;49.830;8.748;2023-02-01T08:08:56;11.70;;;4.43;;
6626;SDS011;3349;49.830;8.748;2023-02-01T08:11:24;9.90;;;4.63;;
6626;SDS011;3349;49.830;8.748;2023-02-01T08:13:51;11.35;;;4.35;;
6626;SDS011;3349;49.830;8.748;2023-02-01T08:16:19;8.38;;;4.00;;
6626;SDS011;3349;49.830;8.748;2023-02-01T08:18:47;15.70;;;6.72;;
6626;SDS011;3349;49.830;8.748;2023-02-01T08:21:14;13.25;;;5.07;;
6626;SDS011;3349;49.830;8.748;2023-02-01T08:23:42;13.00;;;5.40;;
6626;SDS011;3349;49.830;8.748;2023-02-01T08:26:10;11.13;;;5.82;;
6626;SDS011;3349;49.830;8.748;2023-02-01T08:28:41;16.02;;;5.57;;
6626;SDS011;3349;49.830;8.748;2023-02-01T08:31:10;14.25;;;4.68;;
6626;SDS011;3349;49.830;8.748;2023-02-01T08:33:40;12.60;;;5.05;;
6626;SDS011;3349;49.830;8.748;2023-02-01T08:36:08;10.45;;;4.15;;
6626;SDS011;3349;49.830;8.748;2023-02-01T08:38:36;8.65;;;3.88;;
6626;SDS011;3349;49.830;8.748;2023-02-01T08:41:04;10.65;;;4.18;;
6626;SDS011;3349;49.830;8.748;2023-02-01T08:43:31;13.68;;;4.80;;
6626;SDS011;3349;49.830;8.748;2023-02-01T08:45:59;15.23;;;4.35;;
6626;SDS011;3349;49.830;8.748;2023-02-01T08:48:27;13.88;;;4.90;;
6626;SDS011;3349;49.830;8.748;2023-02-01T08:50:53;10.93;;;4.38;;
6626;SDS011;3349;49.830;8.748;2023-02-01T08:53:20;12.70;;;4.25;;
6626;SDS011;3349;49.830;8.748;2023-02-01T08:55:47;8.77;;;3.38;;
6626;SDS011;3349;49.830;8.748;2023-02-01T08:58:14;11.65;;;4.07;;
6626;SDS011;3349;49.830;8.748;2023-02-01T09:00:42;12.73;;;3.50;;
6626;SDS011;3349;49.830;8.748;2023-02-01T09:03:11;12.77;;;3.50;;
6626;SDS011;3349;49.830;8.748;2023-02-01T09:05:38;8.00;;;3.45;;
6626;SDS011;3349;49.830;8.748;2023-02-01T09:08:04;13.02;;;3.80;;
6626;SDS011;3349;49.830;8.748;2023-02-01T09:10:31;10.88;;;3.25;;
6626;SDS011;3349;49.830;8.748;2023-02-01T09:12:58;14.55;;;4.45;;
6626;SDS011;3349;49.830;8.748;2023-02-01T09:15:25;14.32;;;6.20;;
6626;SDS011;3349;49.830;8.748;2023-02-01T09:17:52;13.50;;;3.30;;
6626;SDS011;3349;49.830;8.748;2023-02-01T09:20:20;16.80;;;4.35;;
6626;SDS011;3349;49.830;8.748;2023-02-01T09:22:49;11.52;;;3.70;;
6626;SDS011;3349;49.830;8.748;2023-02-01T09:25:16;15.23;;;5.00;;
6626;SDS011;3349;49.830;8.748;2023-02-01T09:27:43;10.52;;;3.67;;
6626;SDS011;3349;49.830;8.748;2023-02-01T09:30:10;11.35;;;3.50;;
6626;SDS011;3349;49.830;8.748;2023-02-01T09:32:37;12.43;;;3.38;;
6626;SDS011;3349;49.830;8.748;2023-02-01T09:35:04;11.32;;;3.35;;
6626;SDS011;3349;49.830;8.748;2023-02-01T09:37:33;11.23;;;4.63;;
6626;SDS011;3349;49.830;8.748;2023-02-01T09:39:59;10.77;;;4.85;;
6626;SDS011;3349;49.830;8.748;2023-02-01T09:42:32;8.82;;;3.80;;
6626;SDS011;3349;49.830;8.748;2023-02-01T09:45:17;11.65;;;4.32;;
6626;SDS011;3349;49.830;8.748;2023-02-01T09:47:51;8.50;;;3.72;;
6626;SDS011;3349;49.830;8.748;2023-02-01T09:50:21;12.77;;;4.32;;
6626;SDS011;3349;49.830;8.748;2023-02-01T09:52:55;10.48;;;3.85;;
6626;SDS011;3349;49.830;8.748;2023-02-01T09:55:30;12.25;;;4.55;;
6626;SDS011;3349;49.830;8.748;2023-02-01T09:58:02;11.50;;;3.65;;
6626;SDS011;3349;49.830;8.748;2023-02-01T10:00:33;16.80;;;4.47;;
6626;SDS011;3349;49.830;8.748;2023-02-01T10:03:02;8.63;;;3.78;;
6626;SDS011;3349;49.830;8.748;2023-02-01T10:05:41;9.00;;;3.13;;
6626;SDS011;3349;49.830;8.748;2023-02-01T10:08:19;15.38;;;4.50;;
6626;SDS011;3349;49.830;8.748;2023-02-01T10:10:56;10.95;;;3.47;;
6626;SDS011;3349;49.830;8.748;2023-02-01T10:13:36;13.77;;;3.38;;
6626;SDS011;3349;49.830;8.748;2023-02-01T10:16:16;13.35;;;3.95;;
6626;SDS011;3349;49.830;8.748;2023-02-01T10:18:57;10.88;;;4.32;;
6626;SDS011;3349;49.830;8.748;2023-02-01T10:21:49;12.00;;;3.40;;
6626;SDS011;3349;49.830;8.748;2023-02-01T10:24:24;10.85;;;3.60;;
6626;SDS011;3349;49.830;8.748;2023-02-01T10:27:01;16.08;;;3.60;;
6626;SDS011;3349;49.830;8.748;2023-02-01T10:29:36;12.80;;;3.00;;
6626;SDS011;3349;49.830;8.748;2023-02-01T10:32:10;12.35;;;3.00;;
6626;SDS011;3349;49.830;8.748;2023-02-01T10:34:40;8.93;;;3.08;;
6626;SDS011;3349;49.830;8.748;2023-02-01T10:37:11;9.60;;;3.40;;
6626;SDS011;3349;49.830;8.748;2023-02-01T10:39:46;11.77;;;3.10;;
6626;SDS011;3349;49.830;8.748;2023-02-01T10:42:14;9.18;;;3.10;;
6626;SDS011;3349;49.830;8.748;2023-02-01T10:44:43;8.10;;;2.80;;
6626;SDS011;3349;49.830;8.748;2023-02-01T10:47:13;14.55;;;3.42;;
6626;SDS011;3349;49.830;8.748;2023-02-01T10:49:41;12.82;;;3.75;;
6626;SDS011;3349;49.830;8.748;2023-02-01T10:52:14;18.98;;;6.35;;
6626;SDS011;3349;49.830;8.748;2023-02-01T10:54:43;21.15;;;7.45;;
6626;SDS011;3349;49.830;8.748;2023-02-01T10:57:19;9.02;;;3.47;;
6626;SDS011;3349;49.830;8.748;2023-02-01T10:59:47;15.88;;;4.70;;
6626;SDS011;3349;49.830;8.748;2023-02-01T11:02:16;9.18;;;3.50;;
6626;SDS011;3349;49.830;8.748;2023-02-01T11:04:51;9.65;;;2.88;;
6626;SDS011;3349;49.830;8.748;2023-02-01T11:07:26;12.10;;;3.60;;
6626;SDS011;3349;49.830;8.748;2023-02-01T11:09:53;11.02;;;3.58;;
6626;SDS011;3349;49.830;8.748;2023-02-01T11:12:29;9.55;;;3.03;;
6626;SDS011;3349;49.830;8.748;2023-02-01T11:15:02;9.48;;;3.13;;
6626;SDS011;3349;49.830;8.748;2023-02-01T11:17:40;9.45;;;3.15;;
6626;SDS011;3349;49.830;8.748;2023-02-01T11:20:13;13.27;;;3.35;;
6626;SDS011;3349;49.830;8.748;2023-02-01T11:22:45;11.48;;;3.33;;
6626;SDS011;3349;49.830;8.748;2023-02-01T11:25:13;12.98;;;3.03;;
6626;SDS011;3349;49.830;8.748;2023-02-01T11:27:44;9.38;;;2.55;;
6626;SDS011;3349;49.830;8.748;2023-02-01T11:30:15;10.52;;;3.05;;
6626;SDS011;3349;49.830;8.748;2023-02-01T11:32:44;8.93;;;2.88;;
6626;SDS011;3349;49.830;8.748;2023-02-01T11:35:13;12.90;;;3.30;;
6626;SDS011;3349;49.830;8.748;2023-02-01T11:37:44;6.32;;;2.30;;
6626;SDS011;3349;49.830;8.748;2023-02-01T11:40:28;15.95;;;3.40;;
6626;SDS011;3349;49.830;8.748;2023-02-01T11:43:08;14.52;;;3.03;;
6626;SDS011;3349;49.830;8.748;2023-02-01T11:45:40;10.02;;;2.83;;
6626;SDS011;3349;49.830;8.748;2023-02-01T11:48:07;10.50;;;2.83;;
6626;SDS011;3349;49.830;8.748;2023-02-01T11:50:37;8.73;;;2.83;;
6626;SDS011;3349;49.830;8.748;2023-02-01T11:53:19;10.45;;;2.40;;
6626;SDS011;3349;49.830;8.748;2023-02-01T11:56:00;10.48;;;3.13;;
6626;SDS011;3349;49.830;8.748;2023-02-01T11:58:47;13.23;;;3.05;;
6626;SDS011;3349;49.830;8.748;2023-02-01T12:01:38;8.25;;;3.38;;
6626;SDS011;3349;49.830;8.748;2023-02-01T12:04:18;9.63;;;3.58;;
6626;SDS011;3349;49.830;8.748;2023-02-01T12:07:05;7.30;;;3.05;;
6626;SDS011;3349;49.830;8.748;2023-02-01T12:09:44;7.95;;;2.67;;
6626;SDS011;3349;49.830;8.748;2023-02-01T12:12:30;15.40;;;3.45;;
6626;SDS011;3349;49.830;8.748;2023-02-01T12:15:08;9.15;;;2.92;;
6626;SDS011;3349;49.830;8.748;2023-02-01T12:18:02;10.15;;;3.50;;
6626;SDS011;3349;49.830;8.748;2023-02-01T12:21:04;11.48;;;3.90;;
6626;SDS011;3349;49.830;8.748;2023-02-01T12:23:41;8.90;;;3.03;;
6626;SDS011;3349;49.830;8.748;2023-02-01T12:26:31;20.35;;;4.45;;
6626;SDS011;3349;49.830;8.748;2023-02-01T12:29:19;10.85;;;3.80;;
6626;SDS011;3349;49.830;8.748;2023-02-01T12:32:07;12.05;;;3.30;;
6626;SDS011;3349;49.830;8.748;2023-02-01T12:37:51;9.20;;;3.00;;
6626;SDS011;3349;49.830;8.748;2023-02-01T12:40:41;13.77;;;3.80;;
6626;SDS011;3349;49.830;8.748;2023-02-01T12:43:14;12.18;;;3.00;;
6626;SDS011;3349;49.830;8.748;2023-02-01T12:45:47;12.57;;;3.47;;
6626;SDS011;3349;49.830;8.748;2023-02-01T12:48:24;12.88;;;3.08;;
6626;SDS011;3349;49.830;8.748;2023-02-01T12:50:55;10.73;;;3.67;;
6626;SDS011;3349;49.830;8.748;2023-02-01T12:53:27;8.60;;;3.13;;
6626;SDS011;3349;49.830;8.748;2023-02-01T12:56:00;8.90;;;2.80;;
6626;SDS011;3349;49.830;8.748;2023-02-01T12:58:36;13.02;;;3.13;;
6626;SDS011;3349;49.830;8.748;2023-02-01T13:01:09;13.77;;;3.00;;
6626;SDS011;3349;49.830;8.748;2023-02-01T13:03:41;12.05;;;2.72;;
6626;SDS011;3349;49.830;8.748;2023-02-01T13:06:15;7.65;;;2.63;;
6626;SDS011;3349;49.830;8.748;2023-02-01T13:08:45;11.25;;;2.80;;
6626;SDS011;3349;49.830;8.748;2023-02-01T13:11:18;10.10;;;2.72;;
6626;SDS011;3349;49.830;8.748;2023-02-01T13:13:53;9.38;;;3.20;;
6626;SDS011;3349;49.830;8.748;2023-02-01T13:16:26;10.98;;;3.15;;
6626;SDS011;3349;49.830;8.748;2023-02-01T13:19:00;10.68;;;2.90;;
6626;SDS011;3349;49.830;8.748;2023-02-01T13:21:31;8.25;;;2.47;;
6626;SDS011;3349;49.830;8.748;2023-02-01T13:24:01;10.98;;;3.20;;
6626;SDS011;3349;49.830;8.748;2023-02-01T13:26:29;9.88;;;2.63;;
6626;SDS011;3349;49.830;8.748;2023-02-01T13:28:56;11.98;;;3.08;;
6626;SDS011;3349;49.830;8.748;2023-02-01T13:31:32;10.93;;;3.08;;
6626;SDS011;3349;49.830;8.748;2023-02-01T13:34:33;9.93;;;3.10;;
6626;SDS011;3349;49.830;8.748;2023-02-01T13:37:28;12.35;;;3.38;;
6626;SDS011;3349;49.830;8.748;2023-02-01T13:40:23;11.85;;;3.60;;
6626;SDS011;3349;49.830;8.748;2023-02-01T13:43:05;9.95;;;3.13;;
6626;SDS011;3349;49.830;8.748;2023-02-01T13:45:41;10.07;;;3.35;;
6626;SDS011;3349;49.830;8.748;2023-02-01T13:48:14;13.00;;;3.03;;
6626;SDS011;3349;49.830;8.748;2023-02-01T13:50:50;12.27;;;3.10;;
6626;SDS011;3349;49.830;8.748;2023-02-01T13:53:22;13.23;;;3.22;;
6626;SDS011;3349;49.830;8.748;2023-02-01T13:55:55;13.38;;;3.35;;
6626;SDS011;3349;49.830;8.748;2023-02-01T13:58:29;11.10;;;3.42;;
6626;SDS011;3349;49.830;8.748;2023-02-01T14:07:18;9.40;;;3.13;;
6626;SDS011;3349;49.830;8.748;2023-02-01T14:09:46;11.73;;;3.40;;
6626;SDS011;3349;49.830;8.748;2023-02-01T14:15:18;9.70;;;3.60;;
6626;SDS011;3349;49.830;8.748;2023-02-01T14:17:47;14.85;;;3.38;;
6626;SDS011;3349;49.830;8.748;2023-02-01T14:23:26;9.25;;;3.03;;
6626;SDS011;3349;49.830;8.748;2023-02-01T14:26:03;12.68;;;3.70;;
6626;SDS011;3349;49.830;8.748;2023-02-01T14:28:38;9.82;;;3.33;;
6626;SDS011;3349;49.830;8.748;2023-02-01T14:31:16;9.50;;;2.95;;
6626;SDS011;3349;49.830;8.748;2023-02-01T14:33:55;10.52;;;3.40;;
6626;SDS011;3349;49.830;8.748;2023-02-01T14:36:24;10.18;;;3.55;;
6626;SDS011;3349;49.830;8.748;2023-02-01T14:38:54;10.52;;;3.00;;
6626;SDS011;3349;49.830;8.748;2023-02-01T14:41:25;12.23;;;3.42;;
6626;SDS011;3349;49.830;8.748;2023-02-01T14:44:13;10.35;;;3.30;;
6626;SDS011;3349;49.830;8.748;2023-02-01T14:47:09;13.60;;;3.22;;
6626;SDS011;3349;49.830;8.748;2023-02-01T14:52:51;10.68;;;3.72;;
6626;SDS011;3349;49.830;8.748;2023-02-01T14:55:33;9.70;;;4.05;;
6626;SDS011;3349;49.830;8.748;2023-02-01T14:58:04;12.45;;;3.85;;
6626;SDS011;3349;49.830;8.748;2023-02-01T15:00:37;10.50;;;3.42;;
6626;SDS011;3349;49.830;8.748;2023-02-01T15:03:15;15.00;;;4.25;;
6626;SDS011;3349;49.830;8.748;2023-02-01T15:06:01;15.02;;;3.35;;
6626;SDS011;3349;49.830;8.748;2023-02-01T15:08:31;13.38;;;2.90;;
6626;SDS011;3349;49.830;8.748;2023-02-01T15:11:04;10.00;;;3.10;;
6626;SDS011;3349;49.830;8.748;2023-02-01T15:13:36;10.23;;;3.28;;
6626;SDS011;3349;49.830;8.748;2023-02-01T15:16:04;13.05;;;4.22;;
6626;SDS011;3349;49.830;8.748;2023-02-01T15:18:36;11.70;;;3.28;;
6626;SDS011;3349;49.830;8.748;2023-02-01T15:21:04;7.97;;;3.22;;
6626;SDS011;3349;49.830;8.748;2023-02-01T15:23:32;8.20;;;2.80;;
6626;SDS011;3349;49.830;8.748;2023-02-01T15:25:59;9.98;;;3.55;;
6626;SDS011;3349;49.830;8.748;2023-02-01T15:28:27;13.73;;;3.22;;
6626;SDS011;3349;49.830;8.748;2023-02-01T15:30:56;9.90;;;3.42;;
6626;SDS011;3349;49.830;8.748;2023-02-01T15:33:24;10.30;;;2.80;;
6626;SDS011;3349;49.830;8.748;2023-02-01T15:35:51;10.13;;;3.13;;
6626;SDS011;3349;49.830;8.748;2023-02-01T15:38:33;11.23;;;2.80;;
6626;SDS011;3349;49.830;8.748;2023-02-01T15:41:03;11.55;;;3.38;;
6626;SDS011;3349;49.830;8.748;2023-02-01T15:43:34;11.15;;;3.17;;
6626;SDS011;3349;49.830;8.748;2023-02-01T15:46:07;9.68;;;2.67;;
6626;SDS011;3349;49.830;8.748;2023-02-01T15:48:36;7.72;;;2.35;;
6626;SDS011;3349;49.830;8.748;2023-02-01T15:51:11;10.13;;;2.55;;
6626;SDS011;3349;49.830;8.748;2023-02-01T15:53:42;11.63;;;3.50;;
6626;SDS011;3349;49.830;8.748;2023-02-01T15:56:12;9.65;;;2.80;;
6626;SDS011;3349;49.830;8.748;2023-02-01T15:58:50;11.60;;;3.03;;